Data for 06/21/2013

Time Sea-Level Adjusted Pressure Absolute Pressure Temperature Relative Humidity Dew Point   
(mb) (inHg) (mb) (inHg) (C) (F) (%) (C) (F)
00:05 1019 30.09 848 25.04 8.3 47 55 -0.3 31.5
00:10 1019 30.09 848 25.04 8.3 46.9 56 -0 32
00:15 1019 30.09 848 25.04 8.3 46.9 56 0 32.1
00:20 1019 30.09 848 25.04 8.1 46.7 58 0.3 32.5
00:25 1019 30.09 848 25.04 7.9 46.2 59 0.5 32.8
00:30 1019 30.09 848 25.04 7.6 45.7 60 0.4 32.8
00:35 1019 30.09 848 25.04 7.6 45.7 61 0.5 32.9
00:40 1019 30.09 848 25.04 7.5 45.5 62 0.6 33.1
00:45 1019 30.09 848 25.04 7.3 45.2 63 0.9 33.5
00:50 1019 30.09 848 25.04 7 44.7 64 0.6 33.1
00:55 1019 30.09 848 25.04 6.9 44.5 62 0.1 32.1
01:00 1019 30.09 848 25.04 6.8 44.3 62 0 32.1
01:05 1019 30.09 848 25.04 6.7 44 62 -0.1 31.8
01:10 1019 30.09 848 25.04 6.6 43.9 61 -0.3 31.5
01:15 1019 30.09 848 25.04 6.5 43.7 61 -0.4 31.4
01:20 1019 30.09 848 25.04 6.4 43.5 62 -0.3 31.5
01:25 1019 30.09 848 25.04 6.3 43.3 62 -0.3 31.4
01:30 1019 30.09 848 25.04 6.3 43.3 63 -0.3 31.5
01:35 1019 30.09 848 25.04 6.1 43 64 -0.2 31.6
01:40 1019 30.09 848 25.04 6 42.8 64 -0.3 31.4
01:45 1019 30.09 848 25.04 6 42.8 64 -0.3 31.5
01:50 1019 30.09 848 25.04 5.6 42.1 68 0.1 32.3
01:55 1019 30.09 848 25.04 5.2 41.3 68 -0.2 31.6
02:00 1019 30.09 848 25.04 5.3 41.5 67 -0.4 31.3
02:05 1019 30.09 848 25.04 5.4 41.7 66 -0.5 31.1
02:10 1019 30.09 848 25.04 5.4 41.8 66 -0.4 31.3
02:15 1019 30.09 848 25.04 5.4 41.7 67 -0.3 31.5
02:20 1019 30.09 848 25.04 5.3 41.5 66 -0.5 31.2
02:25 1019 30.09 848 25.04 5.4 41.7 65 -0.8 30.6
02:30 1019 30.09 848 25.04 5.6 42.1 65 -0.4 31.3
02:35 1019 30.09 848 25.04 5.7 42.2 65 -0.4 31.3
02:40 1019 30.09 848 25.04 5.6 42.1 67 -0.1 31.8
02:45 1019 30.09 848 25.04 5.4 41.7 69 0.1 32.2
02:50 1019 30.09 848 25.04 5.3 41.5 68 -0 32
02:55 1019 30.09 848 25.04 5.4 41.7 68 -0.1 31.8
03:00 1019 30.09 848 25.04 5.5 41.9 67 -0.1 31.8
03:05 1019 30.09 848 25.04 5.7 42.3 65 -0.3 31.5
03:10 1019 30.09 848 25.04 5.9 42.6 65 -0.2 31.7
03:15 1019 30.09 848 25.04 5.7 42.3 65 -0.3 31.4
03:20 1019 30.09 848 25.04 5.5 41.9 65 -0.5 31.1
03:25 1019 30.09 848 25.04 5 41 69 -0.3 31.5
03:30 1019 30.09 848 25.04 4.7 40.5 70 -0.3 31.5
03:35 1019 30.09 848 25.04 4.6 40.3 70 -0.4 31.4
03:40 1019 30.09 848 25.04 4.6 40.3 70 -0.5 31.2
03:45 1019 30.09 848 25.04 4.6 40.3 68 -0.7 30.7
03:50 1019 30.09 848 25.04 4.6 40.2 70 -0.4 31.4
03:55 1019 30.09 848 25.04 4.5 40.1 70 -0.5 31.1
04:00 1019 30.09 848 25.04 4.6 40.2 69 -0.6 31
04:05 1019 30.09 848 25.04 4.7 40.4 70 -0.4 31.3
04:10 1019 30.09 848 25.04 4.6 40.3 70 -0.4 31.3
04:15 1019 30.09 848 25.04 4.6 40.3 70 -0.3 31.4
04:20 1019 30.09 848 25.04 4.4 40 72 -0.1 31.8
04:25 1019 30.09 848 25.04 4.4 40 70 -0.5 31.2
04:30 1019 30.09 848 25.04 4.8 40.6 69 -0.4 31.3
04:35 1019 30.09 848 25.04 4.7 40.5 70 -0.4 31.3
04:40 1019 30.09 848 25.04 4.5 40.1 71 -0.2 31.6
04:45 1019 30.09 848 25.04 4.3 39.8 71 -0.4 31.3
04:50 1019 30.09 848 25.04 4.5 40 72 -0.2 31.6
04:55 1019 30.09 848 25.04 4.3 39.8 72 -0.4 31.3
05:00 1019 30.09 848 25.04 4.6 40.2 70 -0.5 31.1
05:05 1019 30.09 848 25.04 4.8 40.6 69 -0.4 31.3
05:10 1019 30.09 848 25.04 4.6 40.3 71 -0.2 31.7
05:15 1019 30.09 848 25.04 4.5 40.1 71 -0.4 31.3
05:20 1019 30.09 848 25.04 4.5 40 72 -0.2 31.7
05:25 1019 30.09 848 25.04 4.2 39.6 73 -0.1 31.8
05:30 1019 30.09 848 25.04 4.2 39.5 73 -0.2 31.7
05:35 1019 30.09 848 25.04 4.4 39.8 72 -0.2 31.7
05:40 1019 30.09 848 25.04 4.5 40.2 71 -0.2 31.7
05:45 1019 30.09 848 25.04 4.7 40.4 71 -0.1 31.8
05:50 1019 30.09 848 25.04 4.8 40.6 72 0.1 32.2
05:55 1019 30.09 848 25.04 4.8 40.7 72 0.1 32.3
06:00 1019 30.09 848 25.04 5 41 71 0.3 32.5
06:05 1019 30.09 848 25.04 5.2 41.4 71 0.4 32.8
06:10 1019 30.09 848 25.04 5.6 42.1 69 0.4 32.8
06:15 1019 30.09 848 25.04 6 42.9 67 0.3 32.6
06:20 1019 30.09 848 25.04 6.7 44 65 0.6 33.2
06:25 1019 30.09 848 25.04 7.4 45.3 62 0.7 33.3
06:30 1019 30.09 848 25.04 8 46.3 60 0.7 33.2
06:35 1019 30.09 848 25.04 8.5 47.4 59 0.9 33.6
06:40 1019 30.09 848 25.04 9.2 48.6 57 1.1 34.1
06:45 1019 30.09 848 25.04 9.7 49.4 55 1.1 33.9
06:50 1019 30.09 848 25.04 9.9 49.8 55 1.3 34.4
06:55 1019 30.09 848 25.04 9.7 49.5 57 1.6 34.9
07:00 1019 30.09 848 25.04 9.7 49.4 56 1.3 34.3
07:05 1019 30.09 848 25.04 9.8 49.6 55 1.2 34.2
07:10 1019 30.09 849 25.07 9.7 49.4 56 1.4 34.6
07:15 1019 30.09 848 25.04 9.7 49.5 56 1.4 34.4
07:20 1019 30.09 848 25.04 10.2 50.4 54 1.5 34.7
07:25 1019 30.09 849 25.07 11 51.8 52 1.5 34.7
07:30 1019 30.09 849 25.07 10.8 51.5 55 2.1 35.8
07:35 1019 30.09 849 25.07 10.2 50.3 56 1.9 35.4
07:40 1019 30.09 849 25.07 10.9 51.6 54 2.1 35.7
07:45 1019 30.09 849 25.07 10.6 51 57 2.4 36.4
07:50 1019 30.09 849 25.07 10.4 50.6 57 2.2 35.9
07:55 1020 30.12 849 25.07 10 49.9 59 2.3 36.1
08:00 1020 30.12 849 25.07 9.9 49.8 61 2.7 36.8
08:05 1020 30.12 849 25.07 9.7 49.4 61 2.6 36.8
08:10 1020 30.12 849 25.07 9.8 49.7 62 2.9 37.2
08:15 1020 30.12 849 25.07 9.5 49.1 64 3.1 37.5
08:20 1020 30.12 849 25.07 9.3 48.7 64 3 37.4
08:25 1020 30.12 849 25.07 9.2 48.6 65 3 37.4
08:30 1020 30.12 849 25.07 9.1 48.5 66 3.2 37.8
08:35 1020 30.12 849 25.07 9.2 48.6 66 3.4 38
08:40 1020 30.12 849 25.07 9.5 49 65 3.3 38
08:45 1020 30.12 849 25.07 9.8 49.6 64 3.4 38
08:50 1020 30.12 849 25.07 9.2 48.5 67 3.5 38.2
08:55 1020 30.12 849 25.07 9.4 48.8 64 3 37.5
09:00 1020 30.12 849 25.07 10.2 50.4 62 3.3 37.9
09:05 1020 30.12 849 25.07 10.5 50.9 61 3.4 38.1
09:10 1020 30.12 849 25.07 10.6 51.1 61 3.5 38.3
09:15 1020 30.12 849 25.07 10.6 51 62 3.6 38.5
09:20 1020 30.12 849 25.07 10.3 50.5 62 3.3 38
09:25 1020 30.12 849 25.07 10.3 50.5 62 3.4 38
09:30 1020 30.12 849 25.07 10.5 50.8 58 2.6 36.7
09:35 1020 30.12 849 25.07 10.9 51.7 57 2.8 37.1
09:40 1019 30.09 849 25.07 11 51.7 57 2.8 37
09:45 1019 30.09 849 25.07 11.3 52.3 56 2.9 37.2
09:50 1019 30.09 849 25.07 11.7 53.1 53 2.6 36.8
09:55 1019 30.09 849 25.07 11.8 53.2 56 3.3 38
10:00 1019 30.09 849 25.07 12.2 54 54 3.3 38
10:05 1019 30.09 849 25.07 11.8 53.2 57 3.5 38.3
10:10 1019 30.09 848 25.04 11.3 52.4 57 3.2 37.7
10:15 1019 30.09 848 25.04 11.5 52.6 59 3.7 38.6
10:20 1019 30.09 848 25.04 11.5 52.7 58 3.6 38.4
10:25 1019 30.09 849 25.07 11.6 52.9 57 3.5 38.4
10:30 1019 30.09 849 25.07 11.6 52.9 56 3.2 37.8
10:35 1019 30.09 849 25.07 11.3 52.4 58 3.4 38.1
10:40 1019 30.09 849 25.07 11 51.8 59 3.5 38.2
10:45 1019 30.09 849 25.07 10.9 51.6 59 3.3 37.9
10:50 1020 30.12 849 25.07 10.9 51.6 60 3.5 38.3
10:55 1020 30.12 849 25.07 11 51.7 60 3.6 38.5
11:00 1020 30.12 849 25.07 11.2 52.2 60 3.9 39
11:05 1019 30.09 849 25.07 11.6 52.9 60 4.1 39.3
11:10 1019 30.09 849 25.07 12.2 54 57 4.1 39.3
11:15 1019 30.09 849 25.07 12.5 54.4 58 4.4 39.9
11:20 1019 30.09 849 25.07 12.4 54.4 56 3.8 38.9
11:25 1019 30.09 849 25.07 12.5 54.5 57 4.2 39.5
11:30 1019 30.09 849 25.07 12.6 54.6 58 4.7 40.4
11:35 1019 30.09 849 25.07 12.4 54.4 58 4.3 39.8
11:40 1019 30.09 849 25.07 12.6 54.6 57 4.3 39.7
11:45 1019 30.09 849 25.07 12.7 54.9 55 3.9 39
11:50 1020 30.12 849 25.07 13.3 55.9 51 3.4 38.1
11:55 1020 30.12 849 25.07 13.5 56.2 49 3.1 37.6
12:00 1020 30.12 849 25.07 13.6 56.5 49 3.2 37.7
12:05 1020 30.12 849 25.07 13.5 56.3 50 3.2 37.8
12:10 1020 30.12 849 25.07 13.4 56.2 52 3.7 38.7
12:15 1020 30.12 849 25.07 13.1 55.6 54 4.1 39.3
12:20 1020 30.12 849 25.07 12.7 54.8 58 4.6 40.3
12:25 1020 30.12 849 25.07 12.6 54.7 62 5.5 41.9
12:30 1020 30.12 849 25.07 12.6 54.8 63 5.9 42.7
12:35 1020 30.12 849 25.07 12.6 54.7 64 6 42.7
12:40 1020 30.12 849 25.07 12.6 54.8 68 6.8 44.3
12:45 1020 30.12 849 25.07 13 55.3 57 4.7 40.5
12:50 1020 30.12 849 25.07 13.1 55.5 62 6 42.7
12:55 1020 30.12 849 25.07 13.2 55.8 63 6.3 43.3
13:00 1019 30.09 849 25.07 13.4 56.1 50 3.1 37.7
13:05 1019 30.09 849 25.07 13.9 56.9 45 2.3 36.2
13:10 1019 30.09 849 25.07 14.3 57.7 41 1.4 34.5
13:15 1019 30.09 848 25.04 15.3 59.5 42 2.4 36.3
13:20 1019 30.09 848 25.04 15.7 60.2 41 2.6 36.7
13:25 1019 30.09 848 25.04 15.2 59.3 45 3.5 38.3
13:30 1019 30.09 848 25.04 14.4 58 46 2.9 37.2
13:35 1019 30.09 848 25.04 14.8 58.6 43 2.5 36.4
13:40 1019 30.09 848 25.04 14.8 58.7 45 3.1 37.6
13:45 1019 30.09 848 25.04 14.4 58 43 2.1 35.7
13:50 1019 30.09 848 25.04 14.6 58.2 43 2.3 36.1
13:55 1019 30.09 848 25.04 14.7 58.4 44 2.5 36.6
14:00 1019 30.09 848 25.04 14.4 58 45 2.8 37.1
14:05 1019 30.09 848 25.04 14.5 58 42 1.8 35.2
14:10 1019 30.09 848 25.04 15.3 59.5 40 2 35.5
14:15 1019 30.09 848 25.04 15.8 60.4 39 2.1 35.7
14:20 1019 30.09 848 25.04 16 60.7 40 2.6 36.7
14:25 1019 30.09 848 25.04 15.5 59.9 40 2.1 35.8
14:30 1019 30.09 848 25.04 15.8 60.4 38 1.6 34.9
14:35 1019 30.09 848 25.04 15.9 60.6 40 2.3 36.1
14:40 1019 30.09 848 25.04 15.5 59.8 40 2.2 35.9
14:45 1019 30.09 848 25.04 15.6 60.1 39 1.8 35.3
14:50 1019 30.09 848 25.04 16 60.7 41 2.7 36.9
14:55 1019 30.09 848 25.04 16.6 61.9 37 2 35.6
15:00 1019 30.09 848 25.04 16.4 61.5 38 2.2 36
15:05 1019 30.09 848 25.04 16.3 61.4 39 2.6 36.7
15:10 1019 30.09 848 25.04 15.6 60 41 2.6 36.7
15:15 1019 30.09 848 25.04 16.1 61 46 4.5 40
15:20 1019 30.09 848 25.04 16.4 61.5 46 5 41
15:25 1019 30.09 848 25.04 15.4 59.8 44 3.2 37.7
15:30 1019 30.09 848 25.04 15.9 60.6 39 2.2 36
15:35 1019 30.09 848 25.04 16 60.7 42 3.1 37.6
15:40 1019 30.09 848 25.04 15.3 59.6 43 2.8 37.1
15:45 1019 30.09 848 25.04 15.8 60.5 42 2.9 37.3
15:50 1019 30.09 848 25.04 15.7 60.2 47 4.5 40
15:55 1019 30.09 848 25.04 15 59 49 4.6 40.2
16:00 1019 30.09 848 25.04 14.5 58.1 49 4 39.2
16:05 1019 30.09 848 25.04 14.1 57.4 50 3.9 39.1
16:10 1019 30.09 848 25.04 14.2 57.5 50 3.9 39
16:15 1019 30.09 848 25.04 14.6 58.4 51 4.8 40.7
16:20 1019 30.09 848 25.04 15 59 49 4.4 39.9
16:25 1019 30.09 848 25.04 14.9 58.7 48 3.9 39
16:30 1019 30.09 848 25.04 14.4 58 53 5 41
16:35 1019 30.09 848 25.04 13.7 56.6 58 5.5 41.9
16:40 1019 30.09 848 25.04 13.3 55.9 61 6 42.8
16:45 1019 30.09 848 25.04 13.2 55.8 57 5.1 41.1
16:50 1019 30.09 848 25.04 13.1 55.5 60 5.5 41.9
16:55 1019 30.09 848 25.04 12.9 55.2 61 5.6 42
17:00 1019 30.09 848 25.04 12.8 55 63 5.9 42.6
17:05 1019 30.09 848 25.04 12.7 54.8 61 5.4 41.7
17:10 1019 30.09 848 25.04 12.5 54.4 63 5.7 42.2
17:15 1019 30.09 848 25.04 12.4 54.4 62 5.5 41.9
17:20 1019 30.09 848 25.04 12.5 54.4 68 6.8 44.2
17:25 1019 30.09 848 25.04 12.3 54.1 67 6.4 43.5
17:30 1019 30.09 848 25.04 12.1 53.7 67 6.2 43.2
17:35 1019 30.09 848 25.04 11.8 53.3 66 5.7 42.2
17:40 1019 30.09 848 25.04 11.4 52.6 65 5.2 41.3
17:45 1019 30.09 848 25.04 11.3 52.4 66 5.2 41.3
17:50 1019 30.09 848 25.04 11.1 52 68 5.5 41.9
17:55 1019 30.09 848 25.04 10.9 51.6 74 6.5 43.7
18:00 1018 30.06 848 25.04 11.2 52.1 68 5.4 41.8
18:05 1018 30.06 848 25.04 11.8 53.3 62 4.9 40.9
18:10 1019 30.09 848 25.04 12.3 54.1 62 5.3 41.5
18:15 1019 30.09 848 25.04 12.6 54.7 59 4.9 40.8
18:20 1019 30.09 848 25.04 12.8 55 60 5.4 41.7
18:25 1019 30.09 848 25.04 12.8 55 60 5.3 41.6
18:30 1019 30.09 848 25.04 12.8 55.1 59 5.1 41.2
18:35 1019 30.09 848 25.04 12.7 54.9 59 5 41
18:40 1019 30.09 848 25.04 12.8 55 61 5.5 41.8
18:45 1019 30.09 848 25.04 12.7 54.9 56 4.3 39.7
18:50 1019 30.09 848 25.04 12.7 54.8 59 5 41
18:55 1019 30.09 848 25.04 12.6 54.6 59 4.8 40.7
19:00 1019 30.09 848 25.04 12.5 54.4 59 4.6 40.3
19:05 1019 30.09 848 25.04 12.4 54.3 59 4.7 40.5
19:10 1019 30.09 848 25.04 12.4 54.2 60 4.9 40.8
19:15 1019 30.09 848 25.04 12.3 54.2 58 4.3 39.7
19:20 1019 30.09 848 25.04 12.4 54.3 57 4.3 39.7
19:25 1019 30.09 848 25.04 12.5 54.4 58 4.5 40
19:30 1019 30.09 848 25.04 12.5 54.4 61 5.2 41.4
19:35 1019 30.09 848 25.04 12.4 54.2 61 5 41.1
19:40 1019 30.09 848 25.04 12.3 54.2 62 5.3 41.5
19:45 1019 30.09 848 25.04 12.2 54 63 5.4 41.7
19:50 1019 30.09 848 25.04 12.2 53.9 64 5.5 42
19:55 1019 30.09 848 25.04 12.1 53.7 63 5.2 41.4
20:00 1019 30.09 848 25.04 12.1 53.7 64 5.5 41.8
20:05 1019 30.09 848 25.04 12 53.6 62 5.1 41.1
20:10 1019 30.09 848 25.04 12 53.7 62 5 41.1
20:15 1019 30.09 848 25.04 12.2 54 61 5.1 41.1
20:20 1019 30.09 848 25.04 12.1 53.7 65 5.6 42.2
20:25 1019 30.09 848 25.04 11.9 53.3 66 5.8 42.5
20:30 1019 30.09 848 25.04 11.8 53.2 65 5.5 42
20:35 1019 30.09 848 25.04 11.9 53.4 65 5.6 42.1
20:40 1019 30.09 848 25.04 11.9 53.4 63 5.2 41.4
20:45 1019 30.09 848 25.04 11.8 53.2 66 5.6 42.2
20:50 1019 30.09 848 25.04 11.7 53.1 68 6.1 42.9
20:55 1019 30.09 849 25.07 11.6 52.9 69 6.3 43.3
21:00 1019 30.09 849 25.07 11.6 52.9 69 6.2 43.2
21:05 1019 30.09 849 25.07 11.4 52.6 69 6.1 42.9
21:10 1020 30.12 849 25.07 11.4 52.5 68 5.7 42.3
21:15 1020 30.12 849 25.07 11.4 52.6 69 6.1 42.9
21:20 1020 30.12 849 25.07 11.4 52.5 69 5.9 42.6
21:25 1020 30.12 849 25.07 11.4 52.5 68 5.7 42.2
21:30 1020 30.12 849 25.07 11.2 52.2 70 6.1 42.9
21:35 1020 30.12 849 25.07 11.1 51.9 71 6.1 42.9
21:40 1020 30.12 849 25.07 11 51.7 72 6.1 43
21:45 1020 30.12 849 25.07 11 51.9 66 5 41.1
21:50 1020 30.12 849 25.07 11.2 52.1 72 6.3 43.4
21:55 1020 30.12 849 25.07 11 51.8 70 5.7 42.3
22:00 1020 30.12 849 25.07 11.1 51.9 67 5.3 41.5
22:05 1020 30.12 849 25.07 11.2 52.1 68 5.4 41.8
22:10 1020 30.12 849 25.07 11 51.9 73 6.5 43.7
22:15 1020 30.12 849 25.07 10.7 51.2 75 6.4 43.4
22:20 1020 30.12 849 25.07 10.4 50.7 76 6.4 43.6
22:25 1019 30.09 849 25.07 10.2 50.4 76 6.2 43.2
22:30 1019 30.09 849 25.07 10 50 76 5.9 42.6
22:35 1019 30.09 849 25.07 9.9 49.8 75 5.7 42.3
22:40 1019 30.09 849 25.07 9.9 49.8 73 5.3 41.6
22:45 1019 30.09 849 25.07 10 49.9 73 5.3 41.6
22:50 1019 30.09 849 25.07 9.9 49.9 75 5.7 42.2
22:55 1019 30.09 849 25.07 9.5 49.1 79 6 42.9
23:00 1019 30.09 849 25.07 9 48.1 79 5.5 41.9
23:05 1019 30.09 849 25.07 9 48.2 79 5.6 42.1
23:10 1019 30.09 849 25.07 9 48.2 78 5.5 41.8
23:15 1019 30.09 849 25.07 8.8 47.9 78 5.2 41.3
23:20 1019 30.09 849 25.07 8.8 47.8 78 5.2 41.4
23:25 1019 30.09 848 25.04 8.6 47.5 79 5.3 41.5
23:30 1019 30.09 848 25.04 8.6 47.4 79 5.2 41.3
23:35 1019 30.09 848 25.04 8.7 47.6 77 4.9 40.7
23:40 1019 30.09 848 25.04 8.9 48 76 4.9 40.7
23:45 1019 30.09 848 25.04 8.9 47.9 76 4.8 40.7
23:50 1019 30.09 848 25.04 8.8 47.8 76 4.8 40.7
23:55 1019 30.09 848 25.04 8.7 47.7 77 5 41
24:00 1019 30.09 848 25.04 8.6 47.4 77 4.7 40.5